map of DRS home
DRS - Airport
Location
City:  Dresden, Saxony, Germany
Near (Alt.):Klotzsche
Name:Dresden Airport
Old (Alt.):Dresden-Klotzsche
ICAO:EDDC
IATA:DRS

Details
Type:Airport (Flugplatz, Airfield)
Use:Public/Civil
Latitude:5107'58"N (51.132767)
Longitude:1346'02"E (13.767161)
Datum:WGS 1984
Elevation:755 ft (230 m)
Variation:3.94E (WMM2015 magnetic declination)
0.13 annual change
Runways:1
Longest:8228 × 167 ft (2508 × 51 m), paved

Time
Time Zone:UTC+1 (DST+2)
Local Time:

Weather
METAR:EDDC 190620Z 19006KT 9999 FEW040 M06/M07 Q1019 NOSIG
TAF:EDDC 190500Z 1906/2006 14006KT 9999 SCT040= TAF EDDF 190500Z 1906/2012 06005KT CAVOK

Related Locations
Nearby:
Farthest:CHT: 11739 mi / 18892 km
Waitangi [Tuuta], CIT, NZ

Find:

   beyond  
but within

Other Information
Maps:
NOTAMs:
Links:
Sources:

  
  • flag of Germany
  • flag of Saxony
  • flag of Dresden
  

Sectional Chart

Flight Planning
at skyvector.com

Satellite Image

Google Maps Satellite view

 

Copyright © 2004-2019 Karl L. Swartz. All rights reserved.
The Great Circle Mapper name and logo are trademarks of the Great Circle Mapper.
All other trademarks mentioned herein belong to their respective owners.
Please see credits for attibutions and further copyright information.

  Follow gcmap on Facebook Follow gcmap on Twitter Follow gcmap on Google+ GCmap on LinkedIn

hCard Microformat

Geo Microformat